Wilson Saga — P3PD8 — position and weather

sailwx.info

Track history (hours):
 
Tides and Currents Weather Stations Pressure Air Temp Water Temp Dewpoint Dewpoint Depression Visibility Wind Speed Wind Dir Waves Ship Positions

Wilson Saga

Last reported at 2018-Jun-20 09:29 UTC. Time now 2018-Jun-20 09:45 UTC.
Position N 66°20' E 014°08'.

Length 113 m; draft 6.8 m.

Type: Cargo ship. MMSI: 212893000.

Date/timePositionNaut miles runAvg speedWind from/ knotsBaromVisibWave heightAir tempDewpointWater temp
2018-Jun-20 09:29N 66°20' E 014°08'0 0.0
2018-Jun-20 08:59N 66°20' E 014°08'0 0.0
2018-Jun-20 08:29N 66°20' E 014°08'0 0.0
2018-Jun-20 07:56N 66°20' E 014°08'0 0.0
2018-Jun-20 07:29N 66°20' E 014°08'0 0.0
2018-Jun-20 06:59N 66°20' E 014°08'0 0.0
2018-Jun-20 06:29N 66°20' E 014°08'0 0.0
2018-Jun-20 05:59N 66°20' E 014°08'0 0.1
2018-Jun-20 05:30N 66°20' E 014°08'4 8.1
2018-Jun-20 04:59N 66°17' E 013°60'612.8
2018-Jun-20 04:30N 66°15' E 013°45'4 8.7
2018-Jun-20 04:00N 66°16' E 013°35'1 1.1
2018-Jun-20 03:30N 66°17' E 013°35'0 0.0
2018-Jun-20 03:00N 66°17' E 013°35'0 0.0
2018-Jun-20 02:30N 66°17' E 013°35'0 0.1
2018-Jun-20 02:00N 66°17' E 013°35'0 0.0
2018-Jun-20 01:30N 66°17' E 013°35'0 0.1
2018-Jun-20 01:00N 66°17' E 013°35'0 0.0
2018-Jun-20 00:30N 66°17' E 013°35'0 0.0
2018-Jun-20 00:00N 66°17' E 013°35'0 0.0
2018-Jun-19 23:30N 66°17' E 013°35'0 0.1
2018-Jun-19 23:00N 66°17' E 013°35'0 0.1
2018-Jun-19 22:30N 66°17' E 013°35'0 0.0
2018-Jun-19 22:00N 66°17' E 013°35'0 0.1
2018-Jun-19 21:30N 66°17' E 013°35'0 0.1
2018-Jun-19 21:00N 66°17' E 013°35'0 0.0
2018-Jun-19 20:27N 66°17' E 013°35'0 0.0
2018-Jun-19 20:00N 66°17' E 013°35'0 0.0
2018-Jun-19 19:30N 66°17' E 013°35'0 0.1
2018-Jun-19 19:00N 66°17' E 013°35'0 0.0
2018-Jun-19 18:30N 66°17' E 013°35'0 0.0
2018-Jun-19 17:57N 66°17' E 013°35'0 0.1
2018-Jun-19 17:30N 66°17' E 013°35'0 0.0
2018-Jun-19 17:00N 66°17' E 013°35'0 0.1
2018-Jun-19 16:30N 66°17' E 013°35'0 0.0
2018-Jun-19 16:00N 66°17' E 013°35'0 0.1
2018-Jun-19 15:30N 66°17' E 013°35'0 0.1
2018-Jun-19 15:00N 66°17' E 013°35'0 0.1
2018-Jun-19 14:30N 66°17' E 013°35'0 0.1
2018-Jun-19 14:00N 66°17' E 013°35'0 0.0
2018-Jun-19 13:30N 66°17' E 013°35'0 0.0
2018-Jun-19 13:00N 66°17' E 013°35'0 0.1
2018-Jun-19 12:30N 66°17' E 013°35'1 2.0
2018-Jun-19 11:59N 66°16' E 013°34'511.1
2018-Jun-19 11:30N 66°14' E 013°21'611.3
2018-Jun-19 11:00N 66°11' E 013°09'611.4
2018-Jun-19 10:30N 66°09' E 012°56'510.8
2018-Jun-19 10:00N 66°12' E 012°45'611.9
2018-Jun-19 09:30N 66°15' E 012°31'611.9
2018-Jun-19 09:00N 66°17' E 012°18'612.1
2018-Jun-19 08:30N 66°16' E 012°03'612.5
2018-Jun-19 08:00N 66°15' E 011°48'29911.9
2018-Jun-18 06:59N 62°20' E 004°42'612.3
2018-Jun-18 06:29N 62°14' E 004°37'612.5
2018-Jun-18 06:00N 62°09' E 004°32'612.8
2018-Jun-18 05:30N 62°03' E 004°27'56212.5
2018-Jun-16 08:45N 52°45' E 002°26'311.4
2018-Jun-16 08:28N 52°42' E 002°25'712.0
2018-Jun-16 07:50N 52°34' E 002°23'1012.3
2018-Jun-16 07:01N 52°25' E 002°19'013.4
2018-Jun-16 07:00N 52°24' E 002°19'713.6
2018-Jun-16 06:30N 52°18' E 002°17'1613.6
2018-Jun-16 05:20N 52°02' E 002°12'413.6
2018-Jun-16 05:00N 51°58' E 002°11'713.8
2018-Jun-16 04:30N 51°51' E 002°08'713.8
2018-Jun-16 04:00N 51°44' E 002°05'713.6
2018-Jun-16 03:30N 51°38' E 002°01'713.5
2018-Jun-16 03:00N 51°32' E 001°58'611.2
2018-Jun-16 02:30N 51°26' E 002°01'611.9
2018-Jun-16 02:00N 51°21' E 002°06'612.1
2018-Jun-16 01:30N 51°15' E 002°04'714.2
2018-Jun-16 01:00N 51°11' E 001°55'714.1
2018-Jun-16 00:30N 51°06' E 001°47'3 6.9
2018-Jun-16 00:01N 51°03' E 001°49'4 8.9
2018-Jun-15 23:31N 51°02' E 001°56'510.9
2018-Jun-15 23:01N 51°03' E 002°05'611.9
2018-Jun-15 22:31N 51°04' E 002°14'5 9.1
2018-Jun-15 22:00N 51°03' E 002°21'0 0.3
2018-Jun-15 21:30N 51°03' E 002°21'3 5.1
2018-Jun-15 21:00N 51°03' E 002°17'0 0.1
2018-Jun-15 20:30N 51°03' E 002°17'0 0.0
2018-Jun-15 20:00N 51°03' E 002°17'0 0.0
2018-Jun-15 19:30N 51°03' E 002°17'0 0.0
2018-Jun-15 19:00N 51°03' E 002°17'0 0.0
2018-Jun-15 18:30N 51°03' E 002°17'0 0.0
2018-Jun-15 18:00N 51°03' E 002°17'0 0.0
2018-Jun-15 17:30N 51°03' E 002°17'0 0.0
2018-Jun-15 17:00N 51°03' E 002°17'0 0.0
2018-Jun-15 16:30N 51°03' E 002°17'0 0.0
2018-Jun-15 16:00N 51°03' E 002°17'0 0.0
2018-Jun-15 15:30N 51°03' E 002°17'0 0.0
2018-Jun-15 15:00N 51°03' E 002°17'0 0.0
2018-Jun-15 14:30N 51°03' E 002°17'0 0.0
2018-Jun-15 13:57N 51°03' E 002°17'0 0.0
2018-Jun-15 13:30N 51°03' E 002°17'0 0.0
2018-Jun-15 13:00N 51°03' E 002°17'0 0.0
2018-Jun-15 12:30N 51°03' E 002°17'0 0.0
2018-Jun-15 11:57N 51°03' E 002°17'0 0.0
2018-Jun-15 11:30N 51°03' E 002°17'0 0.0
2018-Jun-15 10:57N 51°03' E 002°17'0 0.0
2018-Jun-15 10:30N 51°03' E 002°17'0 0.0
2018-Jun-15 10:00N 51°03' E 002°17'0 0.0
2018-Jun-15 09:30N 51°03' E 002°17'0 0.0
2018-Jun-15 09:00N 51°03' E 002°17'2 4.2
2018-Jun-15 08:30N 51°03' E 002°20'1 1.1
2018-Jun-15 08:00N 51°04' E 002°21'510.7
2018-Jun-15 07:30N 51°03' E 002°12'611.1
2018-Jun-15 07:00N 51°03' E 002°03'510.5
2018-Jun-15 06:30N 51°02' E 001°55'3 5.2
2018-Jun-15 06:00N 51°04' E 001°52'714.0
2018-Jun-15 05:30N 51°06' E 002°03'714.2
2018-Jun-15 05:00N 51°09' E 002°13'713.2
2018-Jun-15 04:30N 51°12' E 002°23'612.7
2018-Jun-15 04:00N 51°17' E 002°29'612.1
2018-Jun-15 03:30N 51°21' E 002°36'612.0
2018-Jun-15 03:00N 51°22' E 002°45'611.4
2018-Jun-15 02:30N 51°22' E 002°54'611.6
2018-Jun-15 02:00N 51°22' E 003°03'611.2
2018-Jun-15 01:30N 51°23' E 003°12'510.6
2018-Jun-15 01:00N 51°24' E 003°21'5 9.8
2018-Jun-15 00:30N 51°25' E 003°28'5 9.4
2018-Jun-15 00:00N 51°26' E 003°36'4 7.6
2018-Jun-14 23:30N 51°24' E 003°41'611.2
2018-Jun-14 23:00N 51°21' E 003°48'1 2.9
2018-Jun-14 22:30N 51°20' E 003°49'0 0.7
2018-Jun-14 22:01N 51°19' E 003°49'1 1.2
2018-Jun-14 21:31N 51°19' E 003°50'0 0.1
2018-Jun-14 21:01N 51°19' E 003°50'0 0.9
2018-Jun-14 20:31N 51°18' E 003°50'0 0.5
2018-Jun-14 20:01N 51°18' E 003°50'0 0.0
2018-Jun-14 19:28N 51°18' E 003°50'0 0.0
2018-Jun-14 18:58N 51°18' E 003°50'0 0.0
2018-Jun-14 18:28N 51°18' E 003°50'0 0.0
2018-Jun-14 17:58N 51°18' E 003°50'0 0.0
2018-Jun-14 17:28N 51°18' E 003°50'0 0.0
2018-Jun-14 16:58N 51°18' E 003°50'0 0.0
2018-Jun-14 16:25N 51°18' E 003°50'0 0.0
2018-Jun-14 15:58N 51°18' E 003°50'0 0.0
2018-Jun-14 15:28N 51°18' E 003°50'0 0.0
2018-Jun-14 15:00N 51°18' E 003°50'0 0.0
2018-Jun-14 14:31N 51°18' E 003°50'0 0.0
2018-Jun-14 13:58N 51°18' E 003°50'0 0.0
2018-Jun-14 13:22N 51°18' E 003°50'0 0.0
2018-Jun-14 12:58N 51°18' E 003°50'0 0.0
2018-Jun-14 12:28N 51°18' E 003°50'0 0.0
2018-Jun-14 11:58N 51°18' E 003°50'0 0.0
2018-Jun-14 11:30N 51°18' E 003°50'0 0.0
2018-Jun-14 11:00N 51°18' E 003°50'0 0.0
2018-Jun-14 10:30N 51°18' E 003°50'0 0.0
2018-Jun-14 10:00N 51°18' E 003°50'0 0.0
2018-Jun-14 09:31N 51°18' E 003°50'0 0.0
2018-Jun-14 08:59N 51°18' E 003°50'0 0.0
2018-Jun-14 08:29N 51°18' E 003°50'0 0.0
2018-Jun-14 07:59N 51°18' E 003°50'0 0.0
2018-Jun-14 07:29N 51°18' E 003°50'0 0.0
2018-Jun-14 06:59N 51°18' E 003°50'0 0.0
2018-Jun-14 06:29N 51°18' E 003°50'0 0.0
2018-Jun-14 05:59N 51°18' E 003°50'0 0.0
2018-Jun-14 05:29N 51°18' E 003°50'0 0.0
2018-Jun-14 04:58N 51°18' E 003°50'0 0.0
2018-Jun-14 04:25N 51°18' E 003°50'0 0.0
2018-Jun-14 04:00N 51°18' E 003°50'0 0.0
2018-Jun-14 03:29N 51°18' E 003°50'0 0.0
2018-Jun-14 02:59N 51°18' E 003°50'0 0.0
2018-Jun-14 02:29N 51°18' E 003°50'0 0.0
2018-Jun-14 01:58N 51°18' E 003°50'0 0.0
2018-Jun-14 01:28N 51°18' E 003°50'0 0.0
2018-Jun-14 00:58N 51°18' E 003°50'0 0.0
2018-Jun-14 00:28N 51°18' E 003°50'0 0.0
2018-Jun-14 00:01N 51°18' E 003°50'0 0.0
2018-Jun-13 23:28N 51°18' E 003°50'0 0.0
2018-Jun-13 22:58N 51°18' E 003°50'0 0.0
2018-Jun-13 22:28N 51°18' E 003°50'0 0.0
2018-Jun-13 21:58N 51°18' E 003°50'0 0.0
2018-Jun-13 21:28N 51°18' E 003°50'0 0.0
2018-Jun-13 20:58N 51°18' E 003°50'0 0.0
2018-Jun-13 20:28N 51°18' E 003°50'0 0.0
2018-Jun-13 19:58N 51°18' E 003°50'0 0.0
2018-Jun-13 19:28N 51°18' E 003°50'0 0.0
2018-Jun-13 18:58N 51°18' E 003°50'0 0.0
2018-Jun-13 18:28N 51°18' E 003°50'0 0.0
2018-Jun-13 17:58N 51°18' E 003°50'0 0.0
2018-Jun-13 17:28N 51°18' E 003°50'0 0.0
2018-Jun-13 16:58N 51°18' E 003°50'0 0.0
2018-Jun-13 16:25N 51°18' E 003°50'0 0.0
2018-Jun-13 15:55N 51°18' E 003°50'0 0.0
2018-Jun-13 15:28N 51°18' E 003°50'0 0.0
2018-Jun-13 14:58N 51°18' E 003°50'0 0.0
2018-Jun-13 14:25N 51°18' E 003°50'0 0.0
2018-Jun-13 13:58N 51°18' E 003°50'0 0.0
2018-Jun-13 13:28N 51°18' E 003°50'0 0.0
2018-Jun-13 13:00N 51°18' E 003°50'0 0.0
2018-Jun-13 12:30N 51°18' E 003°50'0 0.0
2018-Jun-13 11:57N 51°18' E 003°50'0 0.0
2018-Jun-13 11:29N 51°18' E 003°50'0 0.0
2018-Jun-13 10:59N 51°18' E 003°50'0 0.0
2018-Jun-13 10:29N 51°18' E 003°50'0 0.0
2018-Jun-13 09:58N 51°18' E 003°50'0 0.0
2018-Jun-13 09:28N 51°18' E 003°50'0 0.0
2018-Jun-13 08:58N 51°18' E 003°50'0 0.0
2018-Jun-13 08:28N 51°18' E 003°50'0 0.0
2018-Jun-13 07:58N 51°18' E 003°50'0 0.0
2018-Jun-13 07:25N 51°18' E 003°50'0 0.0
2018-Jun-13 06:58N 51°18' E 003°50'0 0.0
2018-Jun-13 06:28N 51°18' E 003°50'0 0.0
2018-Jun-13 05:58N 51°18' E 003°50'0 0.0
2018-Jun-13 05:28N 51°18' E 003°50'0 0.0
2018-Jun-13 04:58N 51°18' E 003°50'0 0.0
2018-Jun-13 04:30N 51°18' E 003°50'0 0.0
2018-Jun-13 03:59N 51°18' E 003°50'0 0.0
2018-Jun-13 03:29N 51°18' E 003°50'0 0.0
2018-Jun-13 02:59N 51°18' E 003°50'0 0.0
2018-Jun-13 02:30N 51°18' E 003°50'0 0.0
2018-Jun-13 02:00N 51°18' E 003°50'0 0.0
2018-Jun-13 01:30N 51°18' E 003°50'0 0.0
2018-Jun-13 00:59N 51°18' E 003°50'0 0.0
2018-Jun-13 00:29N 51°18' E 003°50'0 0.0
2018-Jun-12 23:59N 51°18' E 003°50'0 0.0
2018-Jun-12 23:26N 51°18' E 003°50'0 0.0
2018-Jun-12 22:59N 51°18' E 003°50'0 0.0
2018-Jun-12 22:26N 51°18' E 003°50'0 0.0
2018-Jun-12 21:59N 51°18' E 003°50'0 0.0
2018-Jun-12 20:59N 51°18' E 003°50'0 0.0
2018-Jun-12 20:29N 51°18' E 003°50'0 0.0
2018-Jun-12 19:59N 51°18' E 003°50'0 0.0
2018-Jun-12 19:29N 51°18' E 003°50'0 0.0
2018-Jun-12 18:59N 51°18' E 003°50'0 0.0
2018-Jun-12 18:29N 51°18' E 003°50'0 0.0
2018-Jun-12 17:59N 51°18' E 003°50'0 0.0
2018-Jun-12 17:29N 51°18' E 003°50'0 0.0
2018-Jun-12 16:59N 51°18' E 003°50'0 0.0
2018-Jun-12 16:29N 51°18' E 003°50'0 0.0
2018-Jun-12 15:59N 51°18' E 003°50'0 0.0
2018-Jun-12 15:29N 51°18' E 003°50'0 0.0
2018-Jun-12 15:00N 51°18' E 003°50'0 0.0
2018-Jun-12 14:30N 51°18' E 003°50'0 0.0
2018-Jun-12 13:57N 51°18' E 003°50'0 0.0
2018-Jun-12 13:30N 51°18' E 003°50'0 0.0
2018-Jun-12 13:00N 51°18' E 003°50'0 0.0
2018-Jun-12 12:25N 51°18' E 003°50'0 0.0
2018-Jun-12 11:58N 51°18' E 003°50'0 0.0
2018-Jun-12 11:28N 51°18' E 003°50'0 0.0
2018-Jun-12 10:58N 51°18' E 003°50'0 0.0
2018-Jun-12 10:28N 51°18' E 003°50'0 0.0
2018-Jun-12 09:58N 51°18' E 003°50'0 0.0
2018-Jun-12 09:28N 51°18' E 003°50'0 0.0
2018-Jun-12 08:58N 51°18' E 003°50'0 0.0
2018-Jun-12 08:28N 51°18' E 003°50'0 0.0
2018-Jun-12 07:58N 51°18' E 003°50'0 0.0
2018-Jun-12 07:28N 51°18' E 003°50'0 0.0
2018-Jun-12 06:58N 51°18' E 003°50'0 0.0
2018-Jun-12 06:28N 51°18' E 003°50'0 0.6
2018-Jun-12 06:00N 51°18' E 003°50'1 3.0
2018-Jun-12 05:30N 51°20' E 003°49'0 0.4
2018-Jun-12 05:00N 51°20' E 003°49'2 3.3
2018-Jun-12 04:30N 51°21' E 003°47'3 5.4
2018-Jun-12 04:00N 51°23' E 003°44'3 6.5
2018-Jun-12 03:30N 51°25' E 003°40'4 7.0
2018-Jun-12 03:00N 51°26' E 003°35'4 7.6
2018-Jun-12 02:30N 51°29' E 003°30'5 9.2
2018-Jun-12 02:00N 51°32' E 003°25'510.5
2018-Jun-12 01:29N 51°37' E 003°22'610.6
2018-Jun-12 00:57N 51°42' E 003°19'4 8.5
2018-Jun-12 00:30N 51°45' E 003°15'3 5.0
2018-Jun-12 00:00N 51°48' E 003°16'2 4.0
2018-Jun-11 23:30N 51°50' E 003°16'2 3.9
2018-Jun-11 23:00N 51°52' E 003°17'3 6.8
2018-Jun-11 22:30N 51°55' E 003°18'510.6
2018-Jun-11 22:00N 52°00' E 003°19'611.9
2018-Jun-11 21:31N 52°06' E 003°21'612.4
2018-Jun-11 21:00N 52°12' E 003°23'612.6
2018-Jun-11 20:30N 52°19' E 003°25'712.8
2018-Jun-11 19:56N 52°26' E 003°27'613.1
2018-Jun-11 19:27N 52°32' E 003°29'613.0
2018-Jun-11 19:00N 52°37' E 003°31'713.1
2018-Jun-11 18:28N 52°43' E 003°39'  
Track history (hours):
 
Tides and Currents Weather Stations Pressure Air Temp Water Temp Dewpoint Dewpoint Depression Visibility Wind Speed Wind Dir Waves Ship Positions

Wilson Saga

Last reported at 2018-Jun-20 09:29 UTC. Time now 2018-Jun-20 09:45 UTC.
Position N 66°20' E 014°08'.

Length 113 m; draft 6.8 m.

Type: Cargo ship. MMSI: 212893000.

Date/timePositionNaut miles runAvg speedWind from/ knotsBaromVisibWave heightAir tempDewpointWater temp
2018-Jun-20 09:29N 66°20' E 014°08'0 0.0
2018-Jun-20 08:59N 66°20' E 014°08'0 0.0
2018-Jun-20 08:29N 66°20' E 014°08'0 0.0
2018-Jun-20 07:56N 66°20' E 014°08'0 0.0
2018-Jun-20 07:29N 66°20' E 014°08'0 0.0
2018-Jun-20 06:59N 66°20' E 014°08'0 0.0
2018-Jun-20 06:29N 66°20' E 014°08'0 0.0
2018-Jun-20 05:59N 66°20' E 014°08'0 0.1
2018-Jun-20 05:30N 66°20' E 014°08'4 8.1
2018-Jun-20 04:59N 66°17' E 013°60'612.8
2018-Jun-20 04:30N 66°15' E 013°45'4 8.7
2018-Jun-20 04:00N 66°16' E 013°35'1 1.1
2018-Jun-20 03:30N 66°17' E 013°35'0 0.0
2018-Jun-20 03:00N 66°17' E 013°35'0 0.0
2018-Jun-20 02:30N 66°17' E 013°35'0 0.1
2018-Jun-20 02:00N 66°17' E 013°35'0 0.0
2018-Jun-20 01:30N 66°17' E 013°35'0 0.1
2018-Jun-20 01:00N 66°17' E 013°35'0 0.0
2018-Jun-20 00:30N 66°17' E 013°35'0 0.0
2018-Jun-20 00:00N 66°17' E 013°35'0 0.0
2018-Jun-19 23:30N 66°17' E 013°35'0 0.1
2018-Jun-19 23:00N 66°17' E 013°35'0 0.1
2018-Jun-19 22:30N 66°17' E 013°35'0 0.0
2018-Jun-19 22:00N 66°17' E 013°35'0 0.1
2018-Jun-19 21:30N 66°17' E 013°35'0 0.1
2018-Jun-19 21:00N 66°17' E 013°35'0 0.0
2018-Jun-19 20:27N 66°17' E 013°35'0 0.0
2018-Jun-19 20:00N 66°17' E 013°35'0 0.0
2018-Jun-19 19:30N 66°17' E 013°35'0 0.1
2018-Jun-19 19:00N 66°17' E 013°35'0 0.0
2018-Jun-19 18:30N 66°17' E 013°35'0 0.0
2018-Jun-19 17:57N 66°17' E 013°35'0 0.1
2018-Jun-19 17:30N 66°17' E 013°35'0 0.0
2018-Jun-19 17:00N 66°17' E 013°35'0 0.1
2018-Jun-19 16:30N 66°17' E 013°35'0 0.0
2018-Jun-19 16:00N 66°17' E 013°35'0 0.1
2018-Jun-19 15:30N 66°17' E 013°35'0 0.1
2018-Jun-19 15:00N 66°17' E 013°35'0 0.1
2018-Jun-19 14:30N 66°17' E 013°35'0 0.1
2018-Jun-19 14:00N 66°17' E 013°35'0 0.0
2018-Jun-19 13:30N 66°17' E 013°35'0 0.0
2018-Jun-19 13:00N 66°17' E 013°35'0 0.1
2018-Jun-19 12:30N 66°17' E 013°35'1 2.0
2018-Jun-19 11:59N 66°16' E 013°34'511.1
2018-Jun-19 11:30N 66°14' E 013°21'611.3
2018-Jun-19 11:00N 66°11' E 013°09'611.4
2018-Jun-19 10:30N 66°09' E 012°56'510.8
2018-Jun-19 10:00N 66°12' E 012°45'611.9
2018-Jun-19 09:30N 66°15' E 012°31'611.9
2018-Jun-19 09:00N 66°17' E 012°18'612.1
2018-Jun-19 08:30N 66°16' E 012°03'612.5
2018-Jun-19 08:00N 66°15' E 011°48'29911.9
2018-Jun-18 06:59N 62°20' E 004°42'612.3
2018-Jun-18 06:29N 62°14' E 004°37'612.5
2018-Jun-18 06:00N 62°09' E 004°32'612.8
2018-Jun-18 05:30N 62°03' E 004°27'56212.5
2018-Jun-16 08:45N 52°45' E 002°26'311.4
2018-Jun-16 08:28N 52°42' E 002°25'712.0
2018-Jun-16 07:50N 52°34' E 002°23'1012.3
2018-Jun-16 07:01N 52°25' E 002°19'013.4
2018-Jun-16 07:00N 52°24' E 002°19'713.6
2018-Jun-16 06:30N 52°18' E 002°17'1613.6
2018-Jun-16 05:20N 52°02' E 002°12'413.6
2018-Jun-16 05:00N 51°58' E 002°11'713.8
2018-Jun-16 04:30N 51°51' E 002°08'713.8
2018-Jun-16 04:00N 51°44' E 002°05'713.6
2018-Jun-16 03:30N 51°38' E 002°01'713.5
2018-Jun-16 03:00N 51°32' E 001°58'611.2
2018-Jun-16 02:30N 51°26' E 002°01'611.9
2018-Jun-16 02:00N 51°21' E 002°06'612.1
2018-Jun-16 01:30N 51°15' E 002°04'714.2
2018-Jun-16 01:00N 51°11' E 001°55'714.1
2018-Jun-16 00:30N 51°06' E 001°47'3 6.9
2018-Jun-16 00:01N 51°03' E 001°49'4 8.9
2018-Jun-15 23:31N 51°02' E 001°56'510.9
2018-Jun-15 23:01N 51°03' E 002°05'611.9
2018-Jun-15 22:31N 51°04' E 002°14'5 9.1
2018-Jun-15 22:00N 51°03' E 002°21'0 0.3
2018-Jun-15 21:30N 51°03' E 002°21'3 5.1
2018-Jun-15 21:00N 51°03' E 002°17'0 0.1
2018-Jun-15 20:30N 51°03' E 002°17'0 0.0
2018-Jun-15 20:00N 51°03' E 002°17'0 0.0
2018-Jun-15 19:30N 51°03' E 002°17'0 0.0
2018-Jun-15 19:00N 51°03' E 002°17'0 0.0
2018-Jun-15 18:30N 51°03' E 002°17'0 0.0
2018-Jun-15 18:00N 51°03' E 002°17'0 0.0
2018-Jun-15 17:30N 51°03' E 002°17'0 0.0
2018-Jun-15 17:00N 51°03' E 002°17'0 0.0
2018-Jun-15 16:30N 51°03' E 002°17'0 0.0
2018-Jun-15 16:00N 51°03' E 002°17'0 0.0
2018-Jun-15 15:30N 51°03' E 002°17'0 0.0
2018-Jun-15 15:00N 51°03' E 002°17'0 0.0
2018-Jun-15 14:30N 51°03' E 002°17'0 0.0
2018-Jun-15 13:57N 51°03' E 002°17'0 0.0
2018-Jun-15 13:30N 51°03' E 002°17'0 0.0
2018-Jun-15 13:00N 51°03' E 002°17'0 0.0
2018-Jun-15 12:30N 51°03' E 002°17'0 0.0
2018-Jun-15 11:57N 51°03' E 002°17'0 0.0
2018-Jun-15 11:30N 51°03' E 002°17'0 0.0
2018-Jun-15 10:57N 51°03' E 002°17'0 0.0
2018-Jun-15 10:30N 51°03' E 002°17'0 0.0
2018-Jun-15 10:00N 51°03' E 002°17'0 0.0
2018-Jun-15 09:30N 51°03' E 002°17'0 0.0
2018-Jun-15 09:00N 51°03' E 002°17'2 4.2
2018-Jun-15 08:30N 51°03' E 002°20'1 1.1
2018-Jun-15 08:00N 51°04' E 002°21'510.7
2018-Jun-15 07:30N 51°03' E 002°12'611.1
2018-Jun-15 07:00N 51°03' E 002°03'510.5
2018-Jun-15 06:30N 51°02' E 001°55'3 5.2
2018-Jun-15 06:00N 51°04' E 001°52'714.0
2018-Jun-15 05:30N 51°06' E 002°03'714.2
2018-Jun-15 05:00N 51°09' E 002°13'713.2
2018-Jun-15 04:30N 51°12' E 002°23'612.7
2018-Jun-15 04:00N 51°17' E 002°29'612.1
2018-Jun-15 03:30N 51°21' E 002°36'612.0
2018-Jun-15 03:00N 51°22' E 002°45'611.4
2018-Jun-15 02:30N 51°22' E 002°54'611.6
2018-Jun-15 02:00N 51°22' E 003°03'611.2
2018-Jun-15 01:30N 51°23' E 003°12'510.6
2018-Jun-15 01:00N 51°24' E 003°21'5 9.8
2018-Jun-15 00:30N 51°25' E 003°28'5 9.4
2018-Jun-15 00:00N 51°26' E 003°36'4 7.6
2018-Jun-14 23:30N 51°24' E 003°41'611.2
2018-Jun-14 23:00N 51°21' E 003°48'1 2.9
2018-Jun-14 22:30N 51°20' E 003°49'0 0.7
2018-Jun-14 22:01N 51°19' E 003°49'1 1.2
2018-Jun-14 21:31N 51°19' E 003°50'0 0.1
2018-Jun-14 21:01N 51°19' E 003°50'0 0.9
2018-Jun-14 20:31N 51°18' E 003°50'0 0.5
2018-Jun-14 20:01N 51°18' E 003°50'0 0.0
2018-Jun-14 19:28N 51°18' E 003°50'0 0.0
2018-Jun-14 18:58N 51°18' E 003°50'0 0.0
2018-Jun-14 18:28N 51°18' E 003°50'0 0.0
2018-Jun-14 17:58N 51°18' E 003°50'0 0.0
2018-Jun-14 17:28N 51°18' E 003°50'0 0.0
2018-Jun-14 16:58N 51°18' E 003°50'0 0.0
2018-Jun-14 16:25N 51°18' E 003°50'0 0.0
2018-Jun-14 15:58N 51°18' E 003°50'0 0.0
2018-Jun-14 15:28N 51°18' E 003°50'0 0.0
2018-Jun-14 15:00N 51°18' E 003°50'0 0.0
2018-Jun-14 14:31N 51°18' E 003°50'0 0.0
2018-Jun-14 13:58N 51°18' E 003°50'0 0.0
2018-Jun-14 13:22N 51°18' E 003°50'0 0.0
2018-Jun-14 12:58N 51°18' E 003°50'0 0.0
2018-Jun-14 12:28N 51°18' E 003°50'0 0.0
2018-Jun-14 11:58N 51°18' E 003°50'0 0.0
2018-Jun-14 11:30N 51°18' E 003°50'0 0.0
2018-Jun-14 11:00N 51°18' E 003°50'0 0.0
2018-Jun-14 10:30N 51°18' E 003°50'0 0.0
2018-Jun-14 10:00N 51°18' E 003°50'0 0.0
2018-Jun-14 09:31N 51°18' E 003°50'0 0.0
2018-Jun-14 08:59N 51°18' E 003°50'0 0.0
2018-Jun-14 08:29N 51°18' E 003°50'0 0.0
2018-Jun-14 07:59N 51°18' E 003°50'0 0.0
2018-Jun-14 07:29N 51°18' E 003°50'0 0.0
2018-Jun-14 06:59N 51°18' E 003°50'0 0.0
2018-Jun-14 06:29N 51°18' E 003°50'0 0.0
2018-Jun-14 05:59N 51°18' E 003°50'0 0.0
2018-Jun-14 05:29N 51°18' E 003°50'0 0.0
2018-Jun-14 04:58N 51°18' E 003°50'0 0.0
2018-Jun-14 04:25N 51°18' E 003°50'0 0.0
2018-Jun-14 04:00N 51°18' E 003°50'0 0.0
2018-Jun-14 03:29N 51°18' E 003°50'0 0.0
2018-Jun-14 02:59N 51°18' E 003°50'0 0.0
2018-Jun-14 02:29N 51°18' E 003°50'0 0.0
2018-Jun-14 01:58N 51°18' E 003°50'0 0.0
2018-Jun-14 01:28N 51°18' E 003°50'0 0.0
2018-Jun-14 00:58N 51°18' E 003°50'0 0.0
2018-Jun-14 00:28N 51°18' E 003°50'0 0.0
2018-Jun-14 00:01N 51°18' E 003°50'0 0.0
2018-Jun-13 23:28N 51°18' E 003°50'0 0.0
2018-Jun-13 22:58N 51°18' E 003°50'0 0.0
2018-Jun-13 22:28N 51°18' E 003°50'0 0.0
2018-Jun-13 21:58N 51°18' E 003°50'0 0.0
2018-Jun-13 21:28N 51°18' E 003°50'0 0.0
2018-Jun-13 20:58N 51°18' E 003°50'0 0.0
2018-Jun-13 20:28N 51°18' E 003°50'0 0.0
2018-Jun-13 19:58N 51°18' E 003°50'0 0.0
2018-Jun-13 19:28N 51°18' E 003°50'0 0.0
2018-Jun-13 18:58N 51°18' E 003°50'0 0.0
2018-Jun-13 18:28N 51°18' E 003°50'0 0.0
2018-Jun-13 17:58N 51°18' E 003°50'0 0.0
2018-Jun-13 17:28N 51°18' E 003°50'0 0.0
2018-Jun-13 16:58N 51°18' E 003°50'0 0.0
2018-Jun-13 16:25N 51°18' E 003°50'0 0.0
2018-Jun-13 15:55N 51°18' E 003°50'0 0.0
2018-Jun-13 15:28N 51°18' E 003°50'0 0.0
2018-Jun-13 14:58N 51°18' E 003°50'0 0.0
2018-Jun-13 14:25N 51°18' E 003°50'0 0.0
2018-Jun-13 13:58N 51°18' E 003°50'0 0.0
2018-Jun-13 13:28N 51°18' E 003°50'0 0.0
2018-Jun-13 13:00N 51°18' E 003°50'0 0.0
2018-Jun-13 12:30N 51°18' E 003°50'0 0.0
2018-Jun-13 11:57N 51°18' E 003°50'0 0.0
2018-Jun-13 11:29N 51°18' E 003°50'0 0.0
2018-Jun-13 10:59N 51°18' E 003°50'0 0.0
2018-Jun-13 10:29N 51°18' E 003°50'0 0.0
2018-Jun-13 09:58N 51°18' E 003°50'0 0.0
2018-Jun-13 09:28N 51°18' E 003°50'0 0.0
2018-Jun-13 08:58N 51°18' E 003°50'0 0.0
2018-Jun-13 08:28N 51°18' E 003°50'0 0.0
2018-Jun-13 07:58N 51°18' E 003°50'0 0.0
2018-Jun-13 07:25N 51°18' E 003°50'0 0.0
2018-Jun-13 06:58N 51°18' E 003°50'0 0.0
2018-Jun-13 06:28N 51°18' E 003°50'0 0.0
2018-Jun-13 05:58N 51°18' E 003°50'0 0.0
2018-Jun-13 05:28N 51°18' E 003°50'0 0.0
2018-Jun-13 04:58N 51°18' E 003°50'0 0.0
2018-Jun-13 04:30N 51°18' E 003°50'0 0.0
2018-Jun-13 03:59N 51°18' E 003°50'0 0.0
2018-Jun-13 03:29N 51°18' E 003°50'0 0.0
2018-Jun-13 02:59N 51°18' E 003°50'0 0.0
2018-Jun-13 02:30N 51°18' E 003°50'0 0.0
2018-Jun-13 02:00N 51°18' E 003°50'0 0.0
2018-Jun-13 01:30N 51°18' E 003°50'0 0.0
2018-Jun-13 00:59N 51°18' E 003°50'0 0.0
2018-Jun-13 00:29N 51°18' E 003°50'0 0.0
2018-Jun-12 23:59N 51°18' E 003°50'0 0.0
2018-Jun-12 23:26N 51°18' E 003°50'0 0.0
2018-Jun-12 22:59N 51°18' E 003°50'0 0.0
2018-Jun-12 22:26N 51°18' E 003°50'0 0.0
2018-Jun-12 21:59N 51°18' E 003°50'0 0.0
2018-Jun-12 20:59N 51°18' E 003°50'0 0.0
2018-Jun-12 20:29N 51°18' E 003°50'0 0.0
2018-Jun-12 19:59N 51°18' E 003°50'0 0.0
2018-Jun-12 19:29N 51°18' E 003°50'0 0.0
2018-Jun-12 18:59N 51°18' E 003°50'0 0.0
2018-Jun-12 18:29N 51°18' E 003°50'0 0.0
2018-Jun-12 17:59N 51°18' E 003°50'0 0.0
2018-Jun-12 17:29N 51°18' E 003°50'0 0.0
2018-Jun-12 16:59N 51°18' E 003°50'0 0.0
2018-Jun-12 16:29N 51°18' E 003°50'0 0.0
2018-Jun-12 15:59N 51°18' E 003°50'0 0.0
2018-Jun-12 15:29N 51°18' E 003°50'0 0.0
2018-Jun-12 15:00N 51°18' E 003°50'0 0.0
2018-Jun-12 14:30N 51°18' E 003°50'0 0.0
2018-Jun-12 13:57N 51°18' E 003°50'0 0.0
2018-Jun-12 13:30N 51°18' E 003°50'0 0.0
2018-Jun-12 13:00N 51°18' E 003°50'0 0.0
2018-Jun-12 12:25N 51°18' E 003°50'0 0.0
2018-Jun-12 11:58N 51°18' E 003°50'0 0.0
2018-Jun-12 11:28N 51°18' E 003°50'0 0.0
2018-Jun-12 10:58N 51°18' E 003°50'0 0.0
2018-Jun-12 10:28N 51°18' E 003°50'0 0.0
2018-Jun-12 09:58N 51°18' E 003°50'0 0.0
2018-Jun-12 09:28N 51°18' E 003°50'0 0.0
2018-Jun-12 08:58N 51°18' E 003°50'0 0.0
2018-Jun-12 08:28N 51°18' E 003°50'0 0.0
2018-Jun-12 07:58N 51°18' E 003°50'0 0.0
2018-Jun-12 07:28N 51°18' E 003°50'0 0.0
2018-Jun-12 06:58N 51°18' E 003°50'0 0.0
2018-Jun-12 06:28N 51°18' E 003°50'0 0.6
2018-Jun-12 06:00N 51°18' E 003°50'1 3.0
2018-Jun-12 05:30N 51°20' E 003°49'0 0.4
2018-Jun-12 05:00N 51°20' E 003°49'2 3.3
2018-Jun-12 04:30N 51°21' E 003°47'3 5.4
2018-Jun-12 04:00N 51°23' E 003°44'3 6.5
2018-Jun-12 03:30N 51°25' E 003°40'4 7.0
2018-Jun-12 03:00N 51°26' E 003°35'4 7.6
2018-Jun-12 02:30N 51°29' E 003°30'5 9.2
2018-Jun-12 02:00N 51°32' E 003°25'510.5
2018-Jun-12 01:29N 51°37' E 003°22'610.6
2018-Jun-12 00:57N 51°42' E 003°19'4 8.5
2018-Jun-12 00:30N 51°45' E 003°15'3 5.0
2018-Jun-12 00:00N 51°48' E 003°16'2 4.0
2018-Jun-11 23:30N 51°50' E 003°16'2 3.9
2018-Jun-11 23:00N 51°52' E 003°17'3 6.8
2018-Jun-11 22:30N 51°55' E 003°18'510.6
2018-Jun-11 22:00N 52°00' E 003°19'611.9
2018-Jun-11 21:31N 52°06' E 003°21'612.4
2018-Jun-11 21:00N 52°12' E 003°23'612.6
2018-Jun-11 20:30N 52°19' E 003°25'712.8
2018-Jun-11 19:56N 52°26' E 003°27'613.1
2018-Jun-11 19:27N 52°32' E 003°29'613.0
2018-Jun-11 19:00N 52°37' E 003°31'713.1
2018-Jun-11 18:28N 52°43' E 003°39'  

Dump ship's entire track history